Terminal Aerodrome Forecast
Issued by NWS

Home | Current Version | Previous Version | Text Only | Print | Product List | Glossary On
Versions: 1 2 3 4 5 6 7 8 9 10 11 12 13 14 15 16 17 18 19 20 21 22 23 24 25 26 27 28 29 30 31 32 33 34 35 36 37 38 39 40 41 42 43 44 45 46 47 48 49 50
000
FTUS45 KBOU 070829 AAA
TAFAPA
TAF AMD
KAPA 070829Z 0708/0806 14006KT 5SM -SN OVC035
     FM071200 01008KT 2SM -SN BKN008 OVC014
     FM071400 36010KT 4SM -SN BKN010 OVC015
     FM071700 36008KT P6SM BKN025 OVC040
     FM072200 34008KT P6SM SCT050 BKN080
     FM080200 16006KT P6SM FEW050=

USA.gov is the U.S. government's official web portal to all federal, state and local government web resources and services.